sensor_id;sensor_type;location;lat;lon;timestamp;P1;durP1;ratioP1;P2;durP2;ratioP2
33505;SDS011;19843;51.040;13.782;2024-01-15T00:01:50;4.78;;;3.17;;
33505;SDS011;19843;51.040;13.782;2024-01-15T00:04:17;6.93;;;3.60;;
33505;SDS011;19843;51.040;13.782;2024-01-15T00:06:46;7.70;;;3.83;;
33505;SDS011;19843;51.040;13.782;2024-01-15T00:09:14;5.63;;;3.40;;
33505;SDS011;19843;51.040;13.782;2024-01-15T00:11:42;6.47;;;2.97;;
33505;SDS011;19843;51.040;13.782;2024-01-15T00:14:09;8.10;;;4.00;;
33505;SDS011;19843;51.040;13.782;2024-01-15T00:16:39;8.27;;;3.85;;
33505;SDS011;19843;51.040;13.782;2024-01-15T00:19:07;8.93;;;4.32;;
33505;SDS011;19843;51.040;13.782;2024-01-15T00:21:34;7.18;;;3.92;;
33505;SDS011;19843;51.040;13.782;2024-01-15T00:24:03;9.25;;;4.38;;
33505;SDS011;19843;51.040;13.782;2024-01-15T00:26:31;9.93;;;4.93;;
33505;SDS011;19843;51.040;13.782;2024-01-15T00:28:58;9.30;;;4.45;;
33505;SDS011;19843;51.040;13.782;2024-01-15T00:31:26;7.00;;;3.80;;
33505;SDS011;19843;51.040;13.782;2024-01-15T00:33:56;9.50;;;4.32;;
33505;SDS011;19843;51.040;13.782;2024-01-15T00:36:23;6.65;;;3.55;;
33505;SDS011;19843;51.040;13.782;2024-01-15T00:38:51;8.63;;;4.00;;
33505;SDS011;19843;51.040;13.782;2024-01-15T00:41:20;7.40;;;3.88;;
33505;SDS011;19843;51.040;13.782;2024-01-15T00:43:47;7.85;;;3.55;;
33505;SDS011;19843;51.040;13.782;2024-01-15T00:46:15;7.10;;;3.25;;
33505;SDS011;19843;51.040;13.782;2024-01-15T00:48:43;8.30;;;3.67;;
33505;SDS011;19843;51.040;13.782;2024-01-15T00:51:11;7.25;;;3.85;;
33505;SDS011;19843;51.040;13.782;2024-01-15T00:53:40;6.55;;;3.67;;
33505;SDS011;19843;51.040;13.782;2024-01-15T00:56:07;6.13;;;3.60;;
33505;SDS011;19843;51.040;13.782;2024-01-15T00:58:36;5.82;;;3.53;;
33505;SDS011;19843;51.040;13.782;2024-01-15T01:01:04;6.78;;;3.47;;
33505;SDS011;19843;51.040;13.782;2024-01-15T01:03:31;8.18;;;3.58;;
33505;SDS011;19843;51.040;13.782;2024-01-15T01:05:59;5.50;;;3.60;;
33505;SDS011;19843;51.040;13.782;2024-01-15T01:08:26;7.43;;;3.15;;
33505;SDS011;19843;51.040;13.782;2024-01-15T01:10:55;5.25;;;3.45;;
33505;SDS011;19843;51.040;13.782;2024-01-15T01:13:23;5.63;;;3.70;;
33505;SDS011;19843;51.040;13.782;2024-01-15T01:15:51;8.05;;;3.03;;
33505;SDS011;19843;51.040;13.782;2024-01-15T01:18:19;7.10;;;3.72;;
33505;SDS011;19843;51.040;13.782;2024-01-15T01:20:47;7.55;;;3.45;;
33505;SDS011;19843;51.040;13.782;2024-01-15T01:23:14;7.97;;;4.75;;
33505;SDS011;19843;51.040;13.782;2024-01-15T01:25:42;7.32;;;4.03;;
33505;SDS011;19843;51.040;13.782;2024-01-15T01:28:09;7.68;;;4.32;;
33505;SDS011;19843;51.040;13.782;2024-01-15T01:30:37;7.13;;;3.75;;
33505;SDS011;19843;51.040;13.782;2024-01-15T01:33:06;8.20;;;4.13;;
33505;SDS011;19843;51.040;13.782;2024-01-15T01:35:33;7.70;;;3.53;;
33505;SDS011;19843;51.040;13.782;2024-01-15T01:38:01;6.57;;;4.00;;
33505;SDS011;19843;51.040;13.782;2024-01-15T01:40:28;6.93;;;3.47;;
33505;SDS011;19843;51.040;13.782;2024-01-15T01:42:56;7.80;;;3.63;;
33505;SDS011;19843;51.040;13.782;2024-01-15T01:45:23;6.80;;;3.20;;
33505;SDS011;19843;51.040;13.782;2024-01-15T01:47:51;7.13;;;3.88;;
33505;SDS011;19843;51.040;13.782;2024-01-15T01:50:20;7.93;;;3.80;;
33505;SDS011;19843;51.040;13.782;2024-01-15T01:52:48;6.28;;;4.68;;
33505;SDS011;19843;51.040;13.782;2024-01-15T01:55:16;7.57;;;4.60;;
33505;SDS011;19843;51.040;13.782;2024-01-15T01:57:45;8.68;;;4.65;;
33505;SDS011;19843;51.040;13.782;2024-01-15T02:00:13;6.28;;;3.90;;
33505;SDS011;19843;51.040;13.782;2024-01-15T02:02:41;8.77;;;4.65;;
33505;SDS011;19843;51.040;13.782;2024-01-15T02:05:08;7.75;;;4.18;;
33505;SDS011;19843;51.040;13.782;2024-01-15T02:07:38;8.88;;;4.43;;
33505;SDS011;19843;51.040;13.782;2024-01-15T02:10:06;8.57;;;4.10;;
33505;SDS011;19843;51.040;13.782;2024-01-15T02:12:33;10.05;;;4.30;;
33505;SDS011;19843;51.040;13.782;2024-01-15T02:15:01;10.38;;;4.40;;
33505;SDS011;19843;51.040;13.782;2024-01-15T02:17:29;7.05;;;3.83;;
33505;SDS011;19843;51.040;13.782;2024-01-15T02:19:56;8.75;;;4.25;;
33505;SDS011;19843;51.040;13.782;2024-01-15T02:22:24;7.38;;;3.45;;
33505;SDS011;19843;51.040;13.782;2024-01-15T02:24:52;7.22;;;4.40;;
33505;SDS011;19843;51.040;13.782;2024-01-15T02:27:20;5.80;;;4.00;;
33505;SDS011;19843;51.040;13.782;2024-01-15T02:29:48;8.93;;;4.03;;
33505;SDS011;19843;51.040;13.782;2024-01-15T02:32:16;9.02;;;4.25;;
33505;SDS011;19843;51.040;13.782;2024-01-15T02:34:43;9.15;;;3.85;;
33505;SDS011;19843;51.040;13.782;2024-01-15T02:37:11;11.18;;;4.72;;
33505;SDS011;19843;51.040;13.782;2024-01-15T02:39:38;9.38;;;4.10;;
33505;SDS011;19843;51.040;13.782;2024-01-15T02:42:07;8.20;;;3.78;;
33505;SDS011;19843;51.040;13.782;2024-01-15T02:44:35;7.45;;;4.63;;
33505;SDS011;19843;51.040;13.782;2024-01-15T02:47:02;7.10;;;3.95;;
33505;SDS011;19843;51.040;13.782;2024-01-15T02:49:30;8.77;;;4.30;;
33505;SDS011;19843;51.040;13.782;2024-01-15T02:51:58;7.57;;;3.90;;
33505;SDS011;19843;51.040;13.782;2024-01-15T02:54:26;10.07;;;4.10;;
33505;SDS011;19843;51.040;13.782;2024-01-15T02:56:54;7.15;;;4.32;;
33505;SDS011;19843;51.040;13.782;2024-01-15T02:59:22;7.30;;;4.55;;
33505;SDS011;19843;51.040;13.782;2024-01-15T03:01:50;9.93;;;3.90;;
33505;SDS011;19843;51.040;13.782;2024-01-15T03:04:17;6.72;;;3.95;;
33505;SDS011;19843;51.040;13.782;2024-01-15T03:06:45;8.95;;;4.20;;
33505;SDS011;19843;51.040;13.782;2024-01-15T03:09:12;7.70;;;4.50;;
33505;SDS011;19843;51.040;13.782;2024-01-15T03:11:40;7.72;;;4.68;;
33505;SDS011;19843;51.040;13.782;2024-01-15T03:14:08;7.57;;;4.60;;
33505;SDS011;19843;51.040;13.782;2024-01-15T03:16:36;11.50;;;5.25;;
33505;SDS011;19843;51.040;13.782;2024-01-15T03:19:04;7.75;;;4.57;;
33505;SDS011;19843;51.040;13.782;2024-01-15T03:21:31;8.07;;;5.53;;
33505;SDS011;19843;51.040;13.782;2024-01-15T03:23:59;8.02;;;4.60;;
33505;SDS011;19843;51.040;13.782;2024-01-15T03:26:26;7.22;;;4.50;;
33505;SDS011;19843;51.040;13.782;2024-01-15T03:28:54;10.77;;;3.72;;
33505;SDS011;19843;51.040;13.782;2024-01-15T03:31:21;9.50;;;5.40;;
33505;SDS011;19843;51.040;13.782;2024-01-15T03:33:50;9.70;;;5.00;;
33505;SDS011;19843;51.040;13.782;2024-01-15T03:36:18;7.40;;;3.60;;
33505;SDS011;19843;51.040;13.782;2024-01-15T03:38:45;6.15;;;4.00;;
33505;SDS011;19843;51.040;13.782;2024-01-15T03:41:13;9.07;;;4.53;;
33505;SDS011;19843;51.040;13.782;2024-01-15T03:43:41;9.32;;;4.15;;
33505;SDS011;19843;51.040;13.782;2024-01-15T03:46:08;11.48;;;4.55;;
33505;SDS011;19843;51.040;13.782;2024-01-15T03:48:36;10.20;;;4.72;;
33505;SDS011;19843;51.040;13.782;2024-01-15T03:51:05;7.20;;;4.28;;
33505;SDS011;19843;51.040;13.782;2024-01-15T03:53:32;11.07;;;4.07;;
33505;SDS011;19843;51.040;13.782;2024-01-15T03:56:00;9.60;;;5.47;;
33505;SDS011;19843;51.040;13.782;2024-01-15T03:58:27;10.57;;;5.57;;
33505;SDS011;19843;51.040;13.782;2024-01-15T04:00:55;8.40;;;4.93;;
33505;SDS011;19843;51.040;13.782;2024-01-15T04:03:22;12.95;;;5.38;;
33505;SDS011;19843;51.040;13.782;2024-01-15T04:05:50;12.15;;;6.43;;
33505;SDS011;19843;51.040;13.782;2024-01-15T04:08:19;12.02;;;5.97;;
33505;SDS011;19843;51.040;13.782;2024-01-15T04:10:46;7.53;;;4.40;;
33505;SDS011;19843;51.040;13.782;2024-01-15T04:13:14;8.73;;;5.43;;
33505;SDS011;19843;51.040;13.782;2024-01-15T04:15:41;8.70;;;4.97;;
33505;SDS011;19843;51.040;13.782;2024-01-15T04:18:09;7.43;;;4.97;;
33505;SDS011;19843;51.040;13.782;2024-01-15T04:20:36;10.02;;;6.00;;
33505;SDS011;19843;51.040;13.782;2024-01-15T04:23:04;9.93;;;4.32;;
33505;SDS011;19843;51.040;13.782;2024-01-15T04:25:33;8.05;;;4.95;;
33505;SDS011;19843;51.040;13.782;2024-01-15T04:28:01;10.35;;;5.18;;
33505;SDS011;19843;51.040;13.782;2024-01-15T04:30:28;6.63;;;4.35;;
33505;SDS011;19843;51.040;13.782;2024-01-15T04:32:55;11.30;;;5.65;;
33505;SDS011;19843;51.040;13.782;2024-01-15T04:35:23;6.97;;;4.43;;
33505;SDS011;19843;51.040;13.782;2024-01-15T04:37:51;7.25;;;4.82;;
33505;SDS011;19843;51.040;13.782;2024-01-15T04:40:19;9.13;;;4.25;;
33505;SDS011;19843;51.040;13.782;2024-01-15T04:42:47;8.45;;;4.70;;
33505;SDS011;19843;51.040;13.782;2024-01-15T04:45:15;8.95;;;5.75;;
33505;SDS011;19843;51.040;13.782;2024-01-15T04:47:44;9.52;;;4.78;;
33505;SDS011;19843;51.040;13.782;2024-01-15T04:50:12;11.15;;;4.63;;
33505;SDS011;19843;51.040;13.782;2024-01-15T04:52:39;6.75;;;4.65;;
33505;SDS011;19843;51.040;13.782;2024-01-15T04:55:07;10.43;;;4.45;;
33505;SDS011;19843;51.040;13.782;2024-01-15T04:57:35;8.27;;;4.80;;
33505;SDS011;19843;51.040;13.782;2024-01-15T05:00:04;15.30;;;5.93;;
33505;SDS011;19843;51.040;13.782;2024-01-15T05:02:32;10.15;;;4.70;;
33505;SDS011;19843;51.040;13.782;2024-01-15T05:05:00;10.35;;;4.82;;
33505;SDS011;19843;51.040;13.782;2024-01-15T05:07:27;8.60;;;4.63;;
33505;SDS011;19843;51.040;13.782;2024-01-15T05:09:55;8.13;;;5.13;;
33505;SDS011;19843;51.040;13.782;2024-01-15T05:12:22;7.60;;;3.53;;
33505;SDS011;19843;51.040;13.782;2024-01-15T05:14:50;11.48;;;4.35;;
33505;SDS011;19843;51.040;13.782;2024-01-15T05:17:19;8.82;;;4.93;;
33505;SDS011;19843;51.040;13.782;2024-01-15T05:19:46;13.15;;;4.53;;
33505;SDS011;19843;51.040;13.782;2024-01-15T05:22:14;8.85;;;4.57;;
33505;SDS011;19843;51.040;13.782;2024-01-15T05:24:41;9.68;;;6.10;;
33505;SDS011;19843;51.040;13.782;2024-01-15T05:27:09;9.30;;;4.55;;
33505;SDS011;19843;51.040;13.782;2024-01-15T05:29:36;11.07;;;4.95;;
33505;SDS011;19843;51.040;13.782;2024-01-15T05:32:04;9.43;;;5.28;;
33505;SDS011;19843;51.040;13.782;2024-01-15T05:34:32;9.43;;;4.72;;
33505;SDS011;19843;51.040;13.782;2024-01-15T05:36:59;7.63;;;4.38;;
33505;SDS011;19843;51.040;13.782;2024-01-15T05:39:27;7.75;;;5.10;;
33505;SDS011;19843;51.040;13.782;2024-01-15T05:41:54;9.50;;;4.70;;
33505;SDS011;19843;51.040;13.782;2024-01-15T05:44:22;12.23;;;5.15;;
33505;SDS011;19843;51.040;13.782;2024-01-15T05:46:49;8.93;;;5.32;;
33505;SDS011;19843;51.040;13.782;2024-01-15T05:49:17;7.65;;;4.13;;
33505;SDS011;19843;51.040;13.782;2024-01-15T05:51:46;8.05;;;3.90;;
33505;SDS011;19843;51.040;13.782;2024-01-15T05:54:13;11.20;;;4.85;;
33505;SDS011;19843;51.040;13.782;2024-01-15T05:56:41;9.35;;;4.93;;
33505;SDS011;19843;51.040;13.782;2024-01-15T05:59:08;11.50;;;5.07;;
33505;SDS011;19843;51.040;13.782;2024-01-15T06:01:40;10.35;;;5.22;;
33505;SDS011;19843;51.040;13.782;2024-01-15T06:04:08;12.82;;;5.22;;
33505;SDS011;19843;51.040;13.782;2024-01-15T06:06:36;11.10;;;5.30;;
33505;SDS011;19843;51.040;13.782;2024-01-15T06:09:05;10.00;;;4.80;;
33505;SDS011;19843;51.040;13.782;2024-01-15T06:11:32;10.98;;;5.10;;
33505;SDS011;19843;51.040;13.782;2024-01-15T06:14:00;11.68;;;6.38;;
33505;SDS011;19843;51.040;13.782;2024-01-15T06:16:28;12.05;;;5.60;;
33505;SDS011;19843;51.040;13.782;2024-01-15T06:18:55;9.20;;;5.38;;
33505;SDS011;19843;51.040;13.782;2024-01-15T06:21:23;10.32;;;4.95;;
33505;SDS011;19843;51.040;13.782;2024-01-15T06:23:51;15.85;;;3.65;;
33505;SDS011;19843;51.040;13.782;2024-01-15T06:26:20;12.80;;;6.28;;
33505;SDS011;19843;51.040;13.782;2024-01-15T06:28:48;9.20;;;4.60;;
33505;SDS011;19843;51.040;13.782;2024-01-15T06:31:15;9.15;;;4.85;;
33505;SDS011;19843;51.040;13.782;2024-01-15T06:33:43;11.18;;;4.88;;
33505;SDS011;19843;51.040;13.782;2024-01-15T06:36:13;8.55;;;4.38;;
33505;SDS011;19843;51.040;13.782;2024-01-15T06:38:42;10.38;;;4.60;;
33505;SDS011;19843;51.040;13.782;2024-01-15T06:41:11;10.43;;;4.63;;
33505;SDS011;19843;51.040;13.782;2024-01-15T06:43:39;8.10;;;4.25;;
33505;SDS011;19843;51.040;13.782;2024-01-15T06:46:07;7.38;;;4.22;;
33505;SDS011;19843;51.040;13.782;2024-01-15T06:48:35;7.05;;;4.15;;
33505;SDS011;19843;51.040;13.782;2024-01-15T06:51:03;7.40;;;3.88;;
33505;SDS011;19843;51.040;13.782;2024-01-15T06:53:31;7.18;;;3.53;;
33505;SDS011;19843;51.040;13.782;2024-01-15T06:55:59;7.65;;;4.18;;
33505;SDS011;19843;51.040;13.782;2024-01-15T06:58:26;6.57;;;4.05;;
33505;SDS011;19843;51.040;13.782;2024-01-15T07:00:55;8.52;;;4.50;;
33505;SDS011;19843;51.040;13.782;2024-01-15T07:03:23;7.97;;;3.88;;
33505;SDS011;19843;51.040;13.782;2024-01-15T07:05:50;9.18;;;3.80;;
33505;SDS011;19843;51.040;13.782;2024-01-15T07:08:18;8.55;;;3.25;;
33505;SDS011;19843;51.040;13.782;2024-01-15T07:10:46;8.70;;;3.90;;
33505;SDS011;19843;51.040;13.782;2024-01-15T07:13:13;7.53;;;3.72;;
33505;SDS011;19843;51.040;13.782;2024-01-15T07:15:41;5.47;;;3.40;;
33505;SDS011;19843;51.040;13.782;2024-01-15T07:18:09;8.38;;;3.88;;
33505;SDS011;19843;51.040;13.782;2024-01-15T07:20:37;6.95;;;3.60;;
33505;SDS011;19843;51.040;13.782;2024-01-15T07:23:04;5.57;;;4.03;;
33505;SDS011;19843;51.040;13.782;2024-01-15T07:25:33;8.57;;;3.13;;
33505;SDS011;19843;51.040;13.782;2024-01-15T07:28:00;6.40;;;2.83;;
33505;SDS011;19843;51.040;13.782;2024-01-15T07:30:30;7.78;;;3.35;;
33505;SDS011;19843;51.040;13.782;2024-01-15T07:32:57;6.90;;;3.13;;
33505;SDS011;19843;51.040;13.782;2024-01-15T07:35:26;8.30;;;4.35;;
33505;SDS011;19843;51.040;13.782;2024-01-15T07:37:54;4.53;;;3.03;;
33505;SDS011;19843;51.040;13.782;2024-01-15T07:40:21;6.82;;;3.92;;
33505;SDS011;19843;51.040;13.782;2024-01-15T07:42:50;7.30;;;3.33;;
33505;SDS011;19843;51.040;13.782;2024-01-15T07:45:18;4.97;;;3.47;;
33505;SDS011;19843;51.040;13.782;2024-01-15T07:47:46;6.47;;;3.75;;
33505;SDS011;19843;51.040;13.782;2024-01-15T07:50:13;5.30;;;3.58;;
33505;SDS011;19843;51.040;13.782;2024-01-15T07:52:42;6.35;;;3.58;;
33505;SDS011;19843;51.040;13.782;2024-01-15T07:55:10;6.70;;;3.17;;
33505;SDS011;19843;51.040;13.782;2024-01-15T07:57:37;10.10;;;4.35;;
33505;SDS011;19843;51.040;13.782;2024-01-15T08:00:05;4.75;;;3.67;;
33505;SDS011;19843;51.040;13.782;2024-01-15T08:02:35;11.30;;;3.83;;
33505;SDS011;19843;51.040;13.782;2024-01-15T08:05:03;5.53;;;2.92;;
33505;SDS011;19843;51.040;13.782;2024-01-15T08:07:31;6.15;;;3.60;;
33505;SDS011;19843;51.040;13.782;2024-01-15T08:10:00;7.07;;;3.97;;
33505;SDS011;19843;51.040;13.782;2024-01-15T08:12:30;6.90;;;3.78;;
33505;SDS011;19843;51.040;13.782;2024-01-15T08:14:58;5.20;;;3.25;;
33505;SDS011;19843;51.040;13.782;2024-01-15T08:17:25;7.00;;;3.75;;
33505;SDS011;19843;51.040;13.782;2024-01-15T08:19:54;4.82;;;3.50;;
33505;SDS011;19843;51.040;13.782;2024-01-15T08:22:23;8.75;;;4.72;;
33505;SDS011;19843;51.040;13.782;2024-01-15T08:24:50;8.80;;;3.80;;
33505;SDS011;19843;51.040;13.782;2024-01-15T08:27:19;6.93;;;3.03;;
33505;SDS011;19843;51.040;13.782;2024-01-15T08:29:47;10.45;;;4.15;;
33505;SDS011;19843;51.040;13.782;2024-01-15T08:32:14;10.23;;;3.78;;
33505;SDS011;19843;51.040;13.782;2024-01-15T08:34:42;6.80;;;3.75;;
33505;SDS011;19843;51.040;13.782;2024-01-15T08:37:09;4.70;;;2.72;;
33505;SDS011;19843;51.040;13.782;2024-01-15T08:39:37;8.45;;;3.72;;
33505;SDS011;19843;51.040;13.782;2024-01-15T08:42:05;5.25;;;3.60;;
33505;SDS011;19843;51.040;13.782;2024-01-15T08:44:33;6.20;;;3.00;;
33505;SDS011;19843;51.040;13.782;2024-01-15T08:47:01;4.57;;;2.88;;
33505;SDS011;19843;51.040;13.782;2024-01-15T08:49:29;8.80;;;3.45;;
33505;SDS011;19843;51.040;13.782;2024-01-15T08:51:56;5.47;;;2.90;;
33505;SDS011;19843;51.040;13.782;2024-01-15T08:54:24;6.95;;;2.70;;
33505;SDS011;19843;51.040;13.782;2024-01-15T08:56:52;5.93;;;3.10;;
33505;SDS011;19843;51.040;13.782;2024-01-15T08:59:19;6.07;;;3.33;;
33505;SDS011;19843;51.040;13.782;2024-01-15T09:01:52;6.45;;;3.20;;
33505;SDS011;19843;51.040;13.782;2024-01-15T09:04:20;7.93;;;3.50;;
33505;SDS011;19843;51.040;13.782;2024-01-15T09:06:48;4.80;;;3.00;;
33505;SDS011;19843;51.040;13.782;2024-01-15T09:09:15;4.82;;;2.72;;
33505;SDS011;19843;51.040;13.782;2024-01-15T09:11:43;6.97;;;4.15;;
33505;SDS011;19843;51.040;13.782;2024-01-15T09:14:10;6.18;;;3.35;;
33505;SDS011;19843;51.040;13.782;2024-01-15T09:16:39;5.57;;;3.05;;
33505;SDS011;19843;51.040;13.782;2024-01-15T09:19:08;7.32;;;3.55;;
33505;SDS011;19843;51.040;13.782;2024-01-15T09:21:37;6.00;;;3.47;;
33505;SDS011;19843;51.040;13.782;2024-01-15T09:24:06;5.80;;;3.03;;
33505;SDS011;19843;51.040;13.782;2024-01-15T09:26:33;4.47;;;2.85;;
33505;SDS011;19843;51.040;13.782;2024-01-15T09:29:01;4.82;;;2.15;;
33505;SDS011;19843;51.040;13.782;2024-01-15T09:31:29;4.10;;;2.60;;
33505;SDS011;19843;51.040;13.782;2024-01-15T09:33:58;6.15;;;2.47;;
33505;SDS011;19843;51.040;13.782;2024-01-15T09:36:27;6.32;;;3.40;;
33505;SDS011;19843;51.040;13.782;2024-01-15T09:38:56;6.47;;;3.47;;
33505;SDS011;19843;51.040;13.782;2024-01-15T09:41:23;4.25;;;3.10;;
33505;SDS011;19843;51.040;13.782;2024-01-15T09:43:51;7.38;;;2.70;;
33505;SDS011;19843;51.040;13.782;2024-01-15T09:46:19;8.35;;;2.88;;
33505;SDS011;19843;51.040;13.782;2024-01-15T09:48:47;3.45;;;2.25;;
33505;SDS011;19843;51.040;13.782;2024-01-15T09:51:15;5.72;;;3.22;;
33505;SDS011;19843;51.040;13.782;2024-01-15T09:53:45;4.95;;;2.55;;
33505;SDS011;19843;51.040;13.782;2024-01-15T09:56:14;6.00;;;2.70;;
33505;SDS011;19843;51.040;13.782;2024-01-15T09:58:42;5.97;;;3.15;;
33505;SDS011;19843;51.040;13.782;2024-01-15T10:01:10;5.20;;;2.67;;
33505;SDS011;19843;51.040;13.782;2024-01-15T10:03:39;7.20;;;2.95;;
33505;SDS011;19843;51.040;13.782;2024-01-15T10:06:07;4.00;;;2.10;;
33505;SDS011;19843;51.040;13.782;2024-01-15T10:08:36;6.85;;;2.60;;
33505;SDS011;19843;51.040;13.782;2024-01-15T10:11:07;4.45;;;2.30;;
33505;SDS011;19843;51.040;13.782;2024-01-15T10:13:35;2.33;;;1.70;;
33505;SDS011;19843;51.040;13.782;2024-01-15T10:16:07;3.90;;;2.38;;
33505;SDS011;19843;51.040;13.782;2024-01-15T10:18:35;4.18;;;2.08;;
33505;SDS011;19843;51.040;13.782;2024-01-15T10:21:03;5.30;;;2.72;;
33505;SDS011;19843;51.040;13.782;2024-01-15T10:23:32;3.42;;;2.05;;
33505;SDS011;19843;51.040;13.782;2024-01-15T10:25:59;5.75;;;3.03;;
33505;SDS011;19843;51.040;13.782;2024-01-15T10:28:28;6.00;;;2.40;;
33505;SDS011;19843;51.040;13.782;2024-01-15T10:30:58;2.17;;;1.88;;
33505;SDS011;19843;51.040;13.782;2024-01-15T10:33:27;5.10;;;2.20;;
33505;SDS011;19843;51.040;13.782;2024-01-15T10:35:55;8.25;;;2.38;;
33505;SDS011;19843;51.040;13.782;2024-01-15T10:38:24;5.18;;;2.97;;
33505;SDS011;19843;51.040;13.782;2024-01-15T10:40:52;3.55;;;2.33;;
33505;SDS011;19843;51.040;13.782;2024-01-15T10:43:20;3.55;;;2.08;;
33505;SDS011;19843;51.040;13.782;2024-01-15T10:45:52;4.63;;;2.95;;
33505;SDS011;19843;51.040;13.782;2024-01-15T10:48:20;7.15;;;2.30;;
33505;SDS011;19843;51.040;13.782;2024-01-15T10:50:48;3.30;;;2.17;;
33505;SDS011;19843;51.040;13.782;2024-01-15T10:53:16;5.00;;;2.47;;
33505;SDS011;19843;51.040;13.782;2024-01-15T10:55:45;4.53;;;2.78;;
33505;SDS011;19843;51.040;13.782;2024-01-15T10:58:14;5.97;;;2.15;;
33505;SDS011;19843;51.040;13.782;2024-01-15T11:00:43;4.55;;;2.65;;
33505;SDS011;19843;51.040;13.782;2024-01-15T11:03:12;8.27;;;3.10;;
33505;SDS011;19843;51.040;13.782;2024-01-15T11:05:41;3.97;;;2.42;;
33505;SDS011;19843;51.040;13.782;2024-01-15T11:08:10;5.50;;;1.85;;
33505;SDS011;19843;51.040;13.782;2024-01-15T11:10:38;3.75;;;2.35;;
33505;SDS011;19843;51.040;13.782;2024-01-15T11:13:08;6.40;;;2.25;;
33505;SDS011;19843;51.040;13.782;2024-01-15T11:15:59;6.43;;;3.10;;
33505;SDS011;19843;51.040;13.782;2024-01-15T11:18:30;5.25;;;2.25;;
33505;SDS011;19843;51.040;13.782;2024-01-15T11:21:21;4.70;;;2.55;;
33505;SDS011;19843;51.040;13.782;2024-01-15T11:23:51;4.00;;;2.17;;
33505;SDS011;19843;51.040;13.782;2024-01-15T11:26:35;7.28;;;3.05;;
33505;SDS011;19843;51.040;13.782;2024-01-15T11:29:04;4.85;;;2.25;;
33505;SDS011;19843;51.040;13.782;2024-01-15T11:37:20;4.15;;;2.78;;
33505;SDS011;19843;51.040;13.782;2024-01-15T11:39:50;4.72;;;2.80;;
33505;SDS011;19843;51.040;13.782;2024-01-15T11:42:19;3.75;;;2.38;;
33505;SDS011;19843;51.040;13.782;2024-01-15T11:44:48;3.95;;;2.58;;
33505;SDS011;19843;51.040;13.782;2024-01-15T11:47:19;4.80;;;2.80;;
33505;SDS011;19843;51.040;13.782;2024-01-15T11:50:19;4.90;;;2.85;;
33505;SDS011;19843;51.040;13.782;2024-01-15T11:52:50;5.53;;;3.20;;
33505;SDS011;19843;51.040;13.782;2024-01-15T11:55:33;4.45;;;2.65;;
33505;SDS011;19843;51.040;13.782;2024-01-15T11:58:02;4.55;;;2.67;;
33505;SDS011;19843;51.040;13.782;2024-01-15T12:00:33;3.97;;;2.45;;
33505;SDS011;19843;51.040;13.782;2024-01-15T12:03:01;3.05;;;2.25;;
33505;SDS011;19843;51.040;13.782;2024-01-15T12:05:30;3.50;;;2.20;;
33505;SDS011;19843;51.040;13.782;2024-01-15T12:07:57;4.10;;;2.13;;
33505;SDS011;19843;51.040;13.782;2024-01-15T12:10:25;3.30;;;2.50;;
33505;SDS011;19843;51.040;13.782;2024-01-15T12:12:57;4.70;;;2.40;;
33505;SDS011;19843;51.040;13.782;2024-01-15T12:15:26;4.22;;;2.45;;
33505;SDS011;19843;51.040;13.782;2024-01-15T12:17:56;4.22;;;2.65;;
33505;SDS011;19843;51.040;13.782;2024-01-15T12:20:24;4.55;;;2.50;;
33505;SDS011;19843;51.040;13.782;2024-01-15T12:22:54;3.60;;;2.17;;
33505;SDS011;19843;51.040;13.782;2024-01-15T12:25:28;5.63;;;2.33;;
33505;SDS011;19843;51.040;13.782;2024-01-15T12:27:57;3.97;;;2.10;;
33505;SDS011;19843;51.040;13.782;2024-01-15T12:30:25;4.47;;;1.92;;
33505;SDS011;19843;51.040;13.782;2024-01-15T12:32:53;5.30;;;3.22;;
33505;SDS011;19843;51.040;13.782;2024-01-15T12:35:23;5.72;;;2.92;;
33505;SDS011;19843;51.040;13.782;2024-01-15T12:37:53;6.18;;;2.63;;
33505;SDS011;19843;51.040;13.782;2024-01-15T12:40:22;5.03;;;2.72;;
33505;SDS011;19843;51.040;13.782;2024-01-15T12:42:50;5.43;;;2.03;;
33505;SDS011;19843;51.040;13.782;2024-01-15T12:45:17;4.25;;;2.20;;
33505;SDS011;19843;51.040;13.782;2024-01-15T12:47:45;5.72;;;2.65;;
33505;SDS011;19843;51.040;13.782;2024-01-15T12:50:14;4.75;;;2.50;;
33505;SDS011;19843;51.040;13.782;2024-01-15T12:52:46;4.80;;;2.42;;
33505;SDS011;19843;51.040;13.782;2024-01-15T12:55:15;4.15;;;2.65;;
33505;SDS011;19843;51.040;13.782;2024-01-15T12:57:42;5.40;;;2.63;;
33505;SDS011;19843;51.040;13.782;2024-01-15T13:00:12;5.38;;;2.35;;
33505;SDS011;19843;51.040;13.782;2024-01-15T13:02:41;5.72;;;2.88;;
33505;SDS011;19843;51.040;13.782;2024-01-15T13:05:10;4.80;;;2.40;;
33505;SDS011;19843;51.040;13.782;2024-01-15T13:07:41;4.80;;;2.22;;
33505;SDS011;19843;51.040;13.782;2024-01-15T13:10:09;4.25;;;2.80;;
33505;SDS011;19843;51.040;13.782;2024-01-15T13:12:40;7.95;;;3.10;;
33505;SDS011;19843;51.040;13.782;2024-01-15T13:15:08;4.90;;;2.63;;
33505;SDS011;19843;51.040;13.782;2024-01-15T13:17:40;4.30;;;2.40;;
33505;SDS011;19843;51.040;13.782;2024-01-15T13:20:08;5.60;;;2.58;;
33505;SDS011;19843;51.040;13.782;2024-01-15T13:22:37;4.65;;;2.42;;
33505;SDS011;19843;51.040;13.782;2024-01-15T13:25:06;5.60;;;2.17;;
33505;SDS011;19843;51.040;13.782;2024-01-15T13:27:35;5.90;;;2.90;;
33505;SDS011;19843;51.040;13.782;2024-01-15T13:30:07;4.35;;;3.00;;
33505;SDS011;19843;51.040;13.782;2024-01-15T13:32:35;4.95;;;2.70;;
33505;SDS011;19843;51.040;13.782;2024-01-15T13:35:03;5.30;;;2.95;;
33505;SDS011;19843;51.040;13.782;2024-01-15T13:37:36;4.43;;;2.72;;
33505;SDS011;19843;51.040;13.782;2024-01-15T13:40:04;5.07;;;3.03;;
33505;SDS011;19843;51.040;13.782;2024-01-15T13:42:34;3.38;;;2.20;;
33505;SDS011;19843;51.040;13.782;2024-01-15T13:45:04;8.38;;;2.92;;
33505;SDS011;19843;51.040;13.782;2024-01-15T13:47:35;4.13;;;2.80;;
33505;SDS011;19843;51.040;13.782;2024-01-15T13:50:04;4.65;;;2.95;;
33505;SDS011;19843;51.040;13.782;2024-01-15T13:52:32;4.93;;;2.55;;
33505;SDS011;19843;51.040;13.782;2024-01-15T13:55:00;4.45;;;2.70;;
33505;SDS011;19843;51.040;13.782;2024-01-15T13:57:28;4.78;;;3.00;;
33505;SDS011;19843;51.040;13.782;2024-01-15T13:59:55;7.88;;;3.30;;
33505;SDS011;19843;51.040;13.782;2024-01-15T14:02:23;4.40;;;2.58;;
33505;SDS011;19843;51.040;13.782;2024-01-15T14:04:53;5.05;;;2.63;;
33505;SDS011;19843;51.040;13.782;2024-01-15T14:07:21;4.57;;;2.65;;
33505;SDS011;19843;51.040;13.782;2024-01-15T14:09:48;6.20;;;2.83;;
33505;SDS011;19843;51.040;13.782;2024-01-15T14:12:16;7.40;;;3.38;;
33505;SDS011;19843;51.040;13.782;2024-01-15T14:14:43;6.13;;;2.90;;
33505;SDS011;19843;51.040;13.782;2024-01-15T14:17:14;5.72;;;3.17;;
33505;SDS011;19843;51.040;13.782;2024-01-15T14:19:41;4.47;;;2.60;;
33505;SDS011;19843;51.040;13.782;2024-01-15T14:22:10;5.20;;;3.53;;
33505;SDS011;19843;51.040;13.782;2024-01-15T14:24:38;5.93;;;3.00;;
33505;SDS011;19843;51.040;13.782;2024-01-15T14:27:05;5.35;;;3.53;;
33505;SDS011;19843;51.040;13.782;2024-01-15T14:29:33;5.82;;;2.97;;
33505;SDS011;19843;51.040;13.782;2024-01-15T14:32:02;6.65;;;3.47;;
33505;SDS011;19843;51.040;13.782;2024-01-15T14:34:30;6.35;;;3.67;;
33505;SDS011;19843;51.040;13.782;2024-01-15T14:36:57;7.70;;;3.35;;
33505;SDS011;19843;51.040;13.782;2024-01-15T14:39:26;5.55;;;3.47;;
33505;SDS011;19843;51.040;13.782;2024-01-15T14:41:54;4.88;;;3.30;;
33505;SDS011;19843;51.040;13.782;2024-01-15T14:44:23;5.53;;;3.10;;
33505;SDS011;19843;51.040;13.782;2024-01-15T14:46:50;4.57;;;2.78;;